METAR history Texel International Airport (EHTX)

August 10, 2022

Time Code Weather Temp. Visibility Ceiling Wind METAR/SPECI
14:55
V
24 °C 10 km+ - 040° 040° 11 kt METAR EHKD 101255Z AUTO 04011KT 360V080 9999 NCD 24/18 Q1026 BLU NOSIG
14:25
V
24 °C 10 km+ - 040° 040° 10 kt METAR EHKD 101225Z AUTO 04010KT 010V080 9999 NCD 24/18 Q1027 BLU NOSIG
13:55
V
24 °C 10 km+ - 050° 050° 10 kt METAR EHKD 101155Z AUTO 05010KT 010V090 9999 NCD 24/18 Q1027 BLU NOSIG
13:25
V
23 °C 10 km+ - 060° 060° 10 kt METAR EHKD 101125Z AUTO 06010KT 020V100 9999 NCD 23/18 Q1027 BLU NOSIG
12:55
V
23 °C 10 km+ - 060° 060° 11 kt METAR EHKD 101055Z AUTO 06011KT 030V090 9999 NCD 23/18 Q1027 BLU NOSIG
12:25
V
22 °C 10 km+ - 060° 060° 10 kt METAR EHKD 101025Z AUTO 06010KT 030V090 9999 NCD 22/17 Q1027 BLU NOSIG
11:55
V
22 °C 10 km+ - 060° 060° 11 kt METAR EHKD 100955Z AUTO 06011KT 020V090 9999 NCD 22/17 Q1028 BLU NOSIG
11:25
V
21 °C 10 km+ - 060° 060° 11 kt METAR EHKD 100925Z AUTO 06011KT 030V100 9999 NCD 21/16 Q1028 BLU NOSIG
10:55
V
21 °C 10 km+ 38,000 ft 060° 060° 12 kt METAR EHKD 100855Z AUTO 06012KT 030V090 9999 BKN380 21/16 Q1028 BLU NOSIG
10:25
V
21 °C 10 km+ 39,000 ft 060° 060° 11 kt METAR EHKD 100825Z AUTO 06011KT 030V090 9999 BKN390 21/16 Q1028 BLU NOSIG
09:55
V
20 °C 10 km+ 39,000 ft 070° 070° 10 kt METAR EHKD 100755Z AUTO 07010KT 030V100 9999 OVC390 20/16 Q1028 BLU NOSIG
09:25
V
20 °C 10 km+ 41,000 ft 060° 060° 12 kt METAR EHKD 100725Z AUTO 06012KT 9999 OVC410 20/16 Q1028 BLU NOSIG
08:55
V
20 °C 10 km+ - 060° 060° 11 kt METAR EHKD 100655Z AUTO 06011KT 030V090 9999 NCD 20/16 Q1028 BLU NOSIG
08:25
V
19 °C 10 km+ - 060° 060° 12 kt METAR EHKD 100625Z AUTO 06012KT 030V090 9999 NCD 19/16 Q1028 BLU NOSIG
07:55
V
19 °C 10 km+ - 060° 060° 12 kt METAR EHKD 100555Z AUTO 06012KT 9999 NCD 19/15 Q1028 BLU NOSIG
07:25
V
18 °C 10 km+ - 060° 060° 9 kt METAR EHKD 100525Z AUTO 06009KT 030V090 9999 NCD 18/15 Q1028 BLU NOSIG
06:55
V
18 °C 10 km+ - 070° 070° 8 kt METAR EHKD 100455Z AUTO 07008KT 030V100 9999 NCD 18/15 Q1028 BLU NOSIG
06:25
V
18 °C 10 km+ - 070° 070° 9 kt METAR EHKD 100425Z AUTO 07009KT 9999 NCD 18/15 Q1028 BLU
05:55
V
18 °C 10 km+ - 080° 080° 9 kt METAR EHKD 100355Z AUTO 08009KT 9999 FEW010 18/15 Q1028 BLU
05:25
V
17 °C 10 km+ - 090° 090° 8 kt METAR EHKD 100325Z AUTO 09008KT 060V120 9999 NCD 17/15 Q1028 BLU
04:55
V
18 °C 10 km+ - 080° 080° 9 kt METAR EHKD 100255Z AUTO 08009KT 9999 NCD 18/15 Q1028 BLU
04:25
V
17 °C 10 km+ - 090° 090° 8 kt METAR EHKD 100225Z AUTO 09008KT 060V120 9999 NCD 17/15 Q1028 BLU
03:55
V
17 °C 10 km+ 40,000 ft 100° 100° 7 kt METAR EHKD 100155Z AUTO 10007KT 9999 BKN400 17/14 Q1028 BLU
03:25
V
18 °C 10 km+ - 080° 080° 8 kt METAR EHKD 100125Z AUTO 08008KT 9999 SCT420 18/15 Q1028 BLU
02:55
V
18 °C 10 km+ - 080° 080° 9 kt METAR EHKD 100055Z AUTO 08009KT 050V110 9999 NCD 18/15 Q1028 BLU
02:25
V
18 °C 10 km+ - 070° 070° 8 kt METAR EHKD 100025Z AUTO 07008KT 9999 NCD 18/15 Q1028 BLU RMK CB INFO NOT AVBL
01:25
V
18 °C 10 km+ - 070° 070° 9 kt METAR EHKD 092325Z AUTO 07009KT 9999 NCD 18/14 Q1028 BLU
00:55
V
18 °C 10 km+ - 060° 060° 10 kt METAR EHKD 092255Z AUTO 06010KT 9999 FEW370 18/14 Q1028 BLU
00:25
V
18 °C 10 km+ - 060° 060° 11 kt METAR EHKD 092225Z AUTO 06011KT 030V090 9999 NCD 18/14 Q1029 BLU

August 9, 2022

Time Code Weather Temp. Visibility Ceiling Wind METAR/SPECI
23:55
V
18 °C 10 km+ - 060° 060° 11 kt METAR EHKD 092155Z AUTO 06011KT 9999 SCT360 18/14 Q1029 BLU
23:25
V
19 °C 10 km+ 34,000 ft 070° 070° 10 kt METAR EHKD 092125Z AUTO 07010KT 9999 BKN340 19/14 Q1029 BLU
23:09
V
19 °C 10 km+ 34,000 ft 070° 070° 10 kt METAR EHKD 092109Z AUTO 07010KT 040V100 9999 OVC340 19/14 Q1029 BLU
22:55
V
19 °C 10 km+ 36,000 ft 060° 060° 11 kt METAR EHKD 092055Z AUTO 06011KT 9999 OVC360 19/15 Q1029 BLU NOSIG
22:25
V
19 °C 10 km+ - 050° 050° 11 kt METAR EHKD 092025Z AUTO 05011KT 020V080 9999 FEW370 19/15 Q1029 BLU NOSIG
21:55
V
19 °C 10 km+ 38,000 ft 050° 050° 9 kt METAR EHKD 091955Z AUTO 05009KT 010V080 9999 BKN380 19/14 Q1029 BLU NOSIG
21:25
V
19 °C 10 km+ 40,000 ft 050° 050° 9 kt METAR EHKD 091925Z AUTO 05009KT 010V080 9999 BKN400 19/13 Q1028 BLU NOSIG
20:55
V
19 °C 10 km+ - 040° 040° 8 kt METAR EHKD 091855Z AUTO 04008KT 010V090 9999 NCD 19/13 Q1028 BLU NOSIG
20:25
V
20 °C 10 km+ - 050° 050° 12 kt METAR EHKD 091825Z AUTO 05012KT 010V080 9999 NCD 20/13 Q1028 BLU NOSIG
19:55
V
20 °C 10 km+ - 030° 030° 11 kt METAR EHKD 091755Z AUTO 03011KT 350V070 9999 SCT390 20/14 Q1028 BLU NOSIG
19:25
V
20 °C 10 km+ - 030° 030° 11 kt METAR EHKD 091725Z AUTO 03011KT 360V060 9999 NCD 20/14 Q1029 BLU NOSIG
18:55
V
21 °C 10 km+ - 030° 030° 11 kt METAR EHKD 091655Z AUTO 03011KT 350V060 9999 NCD 21/14 Q1029 BLU NOSIG
18:25
V
21 °C 10 km+ - 030° 030° 11 kt METAR EHKD 091625Z AUTO 03011KT 350V070 9999 SCT380 21/15 Q1029 BLU NOSIG
17:55
V
22 °C 10 km+ 36,000 ft 030° 030° 11 kt METAR EHKD 091555Z AUTO 03011KT 350V070 9999 BKN360 22/15 Q1029 BLU NOSIG
17:25
V
22 °C 10 km+ - 030° 030° 10 kt METAR EHKD 091525Z AUTO 03010KT 350V070 9999 NCD 22/15 Q1029 BLU NOSIG
16:55
V
22 °C 10 km+ - 030° 030° 9 kt METAR EHKD 091455Z AUTO 03009KT 350V070 9999 FEW320 22/15 Q1029 BLU NOSIG
16:25
V
22 °C 10 km+ - 030° 030° 9 kt METAR EHKD 091425Z AUTO 03009KT 360V080 9999 SCT360 22/15 Q1029 BLU NOSIG
15:55
V
23 °C 10 km+ 34,000 ft 040° 040° 9 kt METAR EHKD 091355Z AUTO 04009KT 360V080 9999 BKN340 23/15 Q1029 BLU NOSIG
15:25
V
23 °C 10 km+ - 040° 040° 9 kt METAR EHKD 091325Z AUTO 04009KT 360V080 9999 FEW390 23/14 Q1029 BLU NOSIG
14:55
V
22 °C 10 km+ - 050° 050° 9 kt METAR EHKD 091255Z AUTO 05009KT 020V080 9999 SCT290 22/13 Q1029 BLU NOSIG
14:25
V
22 °C 10 km+ 36,000 ft 040° 040° 8 kt METAR EHKD 091225Z AUTO 04008KT 350V080 9999 BKN360 22/12 Q1029 BLU NOSIG
13:55
V
22 °C 10 km+ - 040° 040° 8 kt METAR EHKD 091155Z AUTO 04008KT 350V090 9999 NCD 22/13 Q1030 BLU NOSIG
13:25
V
21 °C 10 km+ - 050° 050° 8 kt METAR EHKD 091125Z AUTO 05008KT 020V090 9999 NCD 21/14 Q1030 BLU NOSIG
12:55
V
21 °C 10 km+ 37,000 ft 050° 050° 8 kt METAR EHKD 091055Z AUTO 05008KT 010V090 9999 BKN370 21/14 Q1030 BLU NOSIG
12:25
V
21 °C 10 km+ - 050° 050° 7 kt METAR EHKD 091025Z AUTO 05007KT 360V090 9999 NCD 21/14 Q1030 BLU NOSIG
11:55
V
20 °C 10 km+ - 060° 060° 7 kt METAR EHKD 090955Z AUTO 06007KT 010V100 9999 NCD 20/13 Q1030 BLU NOSIG
11:25
V
20 °C 10 km+ - 070° 070° 7 kt METAR EHKD 090925Z AUTO 07007KT 020V130 9999 NCD 20/13 Q1030 BLU NOSIG
10:55
V
20 °C 10 km+ - 070° 070° 6 kt METAR EHKD 090855Z AUTO 07006KT 030V110 9999 NCD 20/12 Q1030 BLU NOSIG
10:25
V
20 °C 10 km+ - 080° 080° 6 kt METAR EHKD 090825Z AUTO 08006KT 040V110 9999 NCD 20/13 Q1030 BLU NOSIG
09:55
V
20 °C 10 km+ - 080° 080° 7 kt METAR EHKD 090755Z AUTO 08007KT 050V110 9999 NCD 20/13 Q1029 BLU NOSIG
09:25
V
19 °C 10 km+ - 080° 080° 6 kt METAR EHKD 090725Z AUTO 08006KT 040V120 9999 NCD 19/14 Q1029 BLU NOSIG
08:57
V
19 °C 10 km+ - 090° 090° 5 kt METAR EHKD 090657Z AUTO 09005KT 060V120 9999 NCD 19/14 Q1029 BLU NOSIG
08:55
V
19 °C 10 km+ - 090° 090° 5 kt METAR EHKD 090655Z AUTO 09005KT 060V120 9999 NCD 19/14 Q1029 BLU TEMPO SCT014
08:25
V
19 °C 10 km+ - 090° 090° 4 kt METAR EHKD 090625Z AUTO 09004KT 060V120 9999 FEW015 19/14 Q1029 BLU TEMPO SCT014
08:11
V
19 °C 10 km+ - 090° 090° 4 kt METAR EHKD 090611Z AUTO 09004KT 050V120 9999 FEW015 19/15 Q1029 BLU TEMPO SCT014
08:04
V
18 °C 10 km+ - 090° 090° 4 kt METAR EHKD 090604Z AUTO 09004KT 070V130 9999 SCT015 18/15 Q1029 WHT TEMPO SCT014
07:55
V
18 °C 10 km+ - 090° 090° 4 kt METAR EHKD 090555Z AUTO 09004KT 060V130 9999 FEW015 18/15 Q1029 BLU TEMPO SCT014
07:41
M
18 °C 10 km+ 1,600 ft 100° 100° 5 kt METAR EHKD 090541Z AUTO 10005KT 060V130 9999 SCT014 BKN016 18/15 Q1029 GRN TEMPO SCT014
07:31
V
18 °C 10 km+ - 100° 100° 5 kt METAR EHKD 090531Z AUTO 10005KT 9999 FEW013 SCT015 18/15 Q1029 WHT TEMPO SCT014
07:27
V
18 °C 10 km+ - 100° 100° 5 kt METAR EHKD 090527Z AUTO 10005KT 060V120 9999 SCT013 SCT017 18/15 Q1029 GRN TEMPO SCT014
07:25
M
18 °C 10 km+ 1,500 ft 100° 100° 5 kt METAR EHKD 090525Z AUTO 10005KT 060V130 9999 FEW013 BKN015 18/15 Q1029 WHT TEMPO SCT014
07:17
M
18 °C 10 km+ 1,500 ft 100° 100° 4 kt METAR EHKD 090517Z AUTO 10004KT 060V130 9999 FEW012 BKN015 18/15 Q1029 WHT TEMPO SCT014
07:05
V
17 °C 10 km+ - 090° 090° 4 kt METAR EHKD 090505Z AUTO 09004KT 9999 SCT012 SCT015 17/15 Q1028 GRN TEMPO SCT014
07:01
V
17 °C 10 km+ - 090° 090° 5 kt METAR EHKD 090501Z AUTO 09005KT 060V130 9999 FEW014 SCT016 17/15 Q1028 WHT TEMPO SCT014
06:55
M
17 °C 10 km+ 1,700 ft 100° 100° 5 kt METAR EHKD 090455Z AUTO 10005KT 060V130 9999 SCT014 BKN017 17/15 Q1028 GRN TEMPO SCT014
06:37
M
15 °C 10 km+ 1,600 ft 090° 090° 4 kt METAR EHKD 090437Z AUTO 09004KT 050V120 9999 FEW014 BKN016 15/14 Q1028 WHT TEMPO SCT014
06:31
M
15 °C 10 km+ 1,600 ft 090° 090° 4 kt METAR EHKD 090431Z AUTO 09004KT 030V120 9999 SCT014 BKN016 BKN020 15/14 Q1028 GRN TEMPO SCT014
06:25
M
15 °C 10 km+ 1,600 ft 090° 090° 3 kt METAR EHKD 090425Z AUTO 09003KT 040V120 9999 SCT014 BKN016 15/14 Q1028 GRN
06:15
V
15 °C 10 km+ - Var Var 2 kt METAR EHKD 090415Z AUTO VRB02KT 9999 FEW013 SCT016 15/14 Q1028 WHT
06:11
M
15 °C 10 km+ 1,700 ft Var Var 1 kt METAR EHKD 090411Z AUTO VRB01KT 9999 FEW012 SCT014 BKN017 15/14 Q1028 GRN
06:06
M
15 °C 10 km+ 1,500 ft 220° 220° 1 kt METAR EHKD 090406Z AUTO 22001KT 9999 FEW012 BKN015 BKN018 15/14 Q1028 WHT
05:55
M
15 °C 10 km+ 1,600 ft Var Var 1 kt METAR EHKD 090355Z AUTO VRB01KT 9999 SCT014 BKN016 15/14 Q1028 GRN
05:44
M
14 °C 10 km+ 1,600 ft Var Var 1 kt METAR EHKD 090344Z AUTO VRB01KT 9999 FEW013 BKN016 14/14 Q1028 WHT
05:40
V
15 °C 10 km+ - Var Var 1 kt METAR EHKD 090340Z AUTO VRB01KT 9999 FEW013 SCT016 15/14 Q1028 WHT
05:25
V
15 °C 10 km+ - 260° 260° 1 kt METAR EHKD 090325Z AUTO 26001KT 9999 FEW016 15/14 Q1028 BLU
05:15
V
15 °C 10 km+ - Var Var 1 kt METAR EHKD 090315Z AUTO VRB01KT 9999 SCT014 15/14 Q1028 GRN
05:11
V
15 °C 10 km+ - Var Var 2 kt METAR EHKD 090311Z AUTO VRB02KT 9999 SCT014 15/13 Q1028 GRN
05:07
V
15 °C 10 km+ - 100° 100° 3 kt METAR EHKD 090307Z AUTO 10003KT 070V170 9999 FEW015 15/13 Q1028 BLU
04:55
V
16 °C 10 km+ - 090° 090° 5 kt METAR EHKD 090255Z AUTO 09005KT 050V110 9999 SCT015 16/14 Q1028 WHT
04:25
V
17 °C 10 km+ - 070° 070° 5 kt METAR EHKD 090225Z AUTO 07005KT 9999 FEW016 17/14 Q1028 BLU
03:55
V
17 °C 10 km+ - 060° 060° 7 kt METAR EHKD 090155Z AUTO 06007KT 030V090 9999 NCD 17/14 Q1028 BLU
03:25
V
17 °C 10 km+ - 060° 060° 7 kt METAR EHKD 090125Z AUTO 06007KT 9999 NCD 17/14 Q1028 BLU
02:55
V
17 °C 10 km+ - 080° 080° 6 kt METAR EHKD 090055Z AUTO 08006KT 040V100 9999 FEW017 17/14 Q1028 BLU
02:25
V
18 °C 10 km+ - 080° 080° 6 kt METAR EHKD 090025Z AUTO 08006KT 9999 FEW017 18/14 Q1028 BLU
02:19
V
18 °C 10 km+ - 080° 080° 6 kt METAR EHKD 090019Z AUTO 08006KT 9999 FEW016 18/14 Q1028 BLU
02:05
M
17 °C 10 km+ 2,200 ft 050° 050° 5 kt METAR EHKD 090005Z AUTO 05005KT 010V080 9999 SCT017 BKN022 OVC410 17/14 Q1028 WHT
02:01
V
17 °C 10 km+ 41,000 ft 040° 040° 5 kt METAR EHKD 090001Z AUTO 04005KT 010V080 9999 SCT017 SCT025 OVC410 17/14 Q1028 WHT
01:57
V
16 °C 10 km+ 41,000 ft 040° 040° 4 kt METAR EHKD 082357Z AUTO 04004KT 360V080 9999 FEW017 OVC410 16/14 Q1028 BLU
01:55
V
16 °C 10 km+ 41,000 ft 030° 030° 4 kt METAR EHKD 082355Z AUTO 03004KT 360V070 9999 FEW017 SCT021 OVC410 16/14 Q1028 WHT
01:25
V
16 °C 10 km+ - 030° 030° 4 kt METAR EHKD 082325Z AUTO 03004KT 360V070 9999 FEW019 16/14 Q1028 BLU
01:12
V
16 °C 10 km+ - 030° 030° 4 kt METAR EHKD 082312Z AUTO 03004KT 350V070 9999 FEW018 16/14 Q1028 BLU
01:03
V
16 °C 10 km+ - 030° 030° 4 kt METAR EHKD 082303Z AUTO 03004KT 360V060 9999 SCT019 16/14 Q1028 WHT
00:55
V
16 °C 10 km+ - 020° 020° 4 kt METAR EHKD 082255Z AUTO 02004KT 340V050 9999 FEW018 SCT400 16/14 Q1028 BLU
00:25
V
16 °C 10 km+ - 020° 020° 4 kt METAR EHKD 082225Z AUTO 02004KT 9999 FEW018 SCT410 16/14 Q1028 BLU

August 8, 2022

Time Code Weather Temp. Visibility Ceiling Wind METAR/SPECI
23:55
V
17 °C 10 km+ 41,000 ft 010° 010° 5 kt METAR EHKD 082155Z AUTO 01005KT 340V050 9999 OVC410 17/14 Q1028 BLU
23:25
V
17 °C 10 km+ - 010° 010° 5 kt METAR EHKD 082125Z AUTO 01005KT 340V040 9999 NCD 17/15 Q1028 BLU
22:55
V
17 °C 10 km+ - 010° 010° 6 kt METAR EHKD 082055Z AUTO 01006KT 340V040 9999 NCD 17/14 Q1028 BLU
22:25
V
18 °C 10 km+ - 360° 360° 7 kt METAR EHKD 082025Z AUTO 36007KT 320V040 9999 NCD 18/14 Q1028 BLU
21:55
V
18 °C 10 km+ - 360° 360° 6 kt METAR EHKD 081955Z AUTO 36006KT 320V050 9999 NCD 18/14 Q1028 BLU
21:25
V
18 °C 10 km+ - 010° 010° 6 kt METAR EHKD 081925Z AUTO 01006KT 330V050 9999 NCD 18/14 Q1028 BLU
20:55
V
19 °C 10 km+ - 020° 020° 7 kt METAR EHKD 081855Z AUTO 02007KT 350V060 9999 NCD 19/14 Q1027 BLU
20:25
V
19 °C 10 km+ - 040° 040° 7 kt METAR EHKD 081825Z AUTO 04007KT 360V080 9999 NCD 19/14 Q1027 BLU
19:55
V
20 °C 10 km+ - 030° 030° 6 kt METAR EHKD 081755Z AUTO 03006KT 360V080 9999 NCD 20/15 Q1027 BLU
19:25
V
20 °C 10 km+ - 040° 040° 8 kt METAR EHKD 081725Z AUTO 04008KT 360V080 9999 NCD 20/15 Q1027 BLU
18:55
V
21 °C 10 km+ - 040° 040° 8 kt METAR EHKD 081655Z AUTO 04008KT 010V080 9999 FEW022 21/15 Q1027 BLU
18:25
V
22 °C 10 km+ - 020° 020° 8 kt METAR EHKD 081625Z AUTO 02008KT 320V060 9999 NCD 22/14 Q1027 BLU NOSIG
17:55
V
21 °C 10 km+ - 350° 350° 7 kt METAR EHKD 081555Z AUTO 35007KT 300V040 9999 NCD 21/14 Q1027 BLU NOSIG
17:25
V
22 °C 10 km+ - 360° 360° 8 kt METAR EHKD 081525Z AUTO 36008KT 300V050 9999 NCD 22/15 Q1027 BLU NOSIG
16:55
V
22 °C 10 km+ - 360° 360° 7 kt METAR EHKD 081455Z AUTO 36007KT 290V070 9999 FEW024 22/15 Q1027 BLU NOSIG
16:25
V
22 °C 10 km+ - 310° 310° 10 kt METAR EHKD 081425Z AUTO 31010KT 250V340 9999 FEW022 22/14 Q1027 BLU NOSIG
15:55
V
22 °C 10 km+ 36,000 ft 310° 310° 10 kt METAR EHKD 081355Z AUTO 31010KT 280V350 9999 BKN360 22/15 Q1027 BLU NOSIG
15:25
V
22 °C 10 km+ 35,000 ft 310° 310° 9 kt METAR EHKD 081325Z AUTO 31009KT 260V010 9999 BKN350 22/14 Q1027 BLU NOSIG
14:55
V
22 °C 10 km+ - 320° 320° 7 kt METAR EHKD 081255Z AUTO 32007KT 260V010 9999 FEW350 22/14 Q1027 BLU NOSIG
Older data

We and third parties follow your internet behavior on our website with cookies. If you continue, we assume you agree with our cookie policy. Learn more